sensor_id;sensor_type;location;lat;lon;timestamp;pressure;altitude;pressure_sealevel;temperature;humidity
9738;BME280;4908;47.446;13.900;2023-07-24T00:00:02;92814.53;;;14.69;100.00
9738;BME280;4908;47.446;13.900;2023-07-24T00:02:29;92806.91;;;14.64;100.00
9738;BME280;4908;47.446;13.900;2023-07-24T00:04:57;92809.22;;;14.62;100.00
9738;BME280;4908;47.446;13.900;2023-07-24T00:07:24;92806.63;;;14.55;100.00
9738;BME280;4908;47.446;13.900;2023-07-24T00:09:52;92807.00;;;14.57;100.00
9738;BME280;4908;47.446;13.900;2023-07-24T00:12:21;92806.28;;;14.53;100.00
9738;BME280;4908;47.446;13.900;2023-07-24T00:14:48;92800.25;;;14.42;100.00
9738;BME280;4908;47.446;13.900;2023-07-24T00:17:15;92788.34;;;14.40;100.00
9738;BME280;4908;47.446;13.900;2023-07-24T00:19:43;92791.44;;;14.38;100.00
9738;BME280;4908;47.446;13.900;2023-07-24T00:22:10;92792.63;;;14.37;100.00
9738;BME280;4908;47.446;13.900;2023-07-24T00:24:37;92793.75;;;14.40;100.00
9738;BME280;4908;47.446;13.900;2023-07-24T00:27:06;92787.78;;;14.52;100.00
9738;BME280;4908;47.446;13.900;2023-07-24T00:29:33;92792.81;;;14.53;100.00
9738;BME280;4908;47.446;13.900;2023-07-24T00:32:00;92786.13;;;14.61;100.00
9738;BME280;4908;47.446;13.900;2023-07-24T00:34:27;92775.28;;;14.68;100.00
9738;BME280;4908;47.446;13.900;2023-07-24T00:36:54;92779.84;;;14.71;100.00
9738;BME280;4908;47.446;13.900;2023-07-24T00:39:22;92777.84;;;14.75;100.00
9738;BME280;4908;47.446;13.900;2023-07-24T00:41:49;92773.53;;;14.81;100.00
9738;BME280;4908;47.446;13.900;2023-07-24T00:44:18;92765.91;;;14.76;100.00
9738;BME280;4908;47.446;13.900;2023-07-24T00:46:45;92766.66;;;14.77;100.00
9738;BME280;4908;47.446;13.900;2023-07-24T00:49:13;92771.66;;;14.78;100.00
9738;BME280;4908;47.446;13.900;2023-07-24T00:51:40;92772.81;;;14.77;100.00
9738;BME280;4908;47.446;13.900;2023-07-24T00:54:08;92770.91;;;14.78;100.00
9738;BME280;4908;47.446;13.900;2023-07-24T00:56:35;92765.03;;;14.83;100.00
9738;BME280;4908;47.446;13.900;2023-07-24T00:59:02;92763.53;;;14.82;100.00
9738;BME280;4908;47.446;13.900;2023-07-24T01:01:31;92764.31;;;14.79;100.00
9738;BME280;4908;47.446;13.900;2023-07-24T01:03:59;92757.25;;;14.88;100.00
9738;BME280;4908;47.446;13.900;2023-07-24T01:06:26;92757.25;;;14.88;100.00
9738;BME280;4908;47.446;13.900;2023-07-24T01:08:53;92751.16;;;14.84;100.00
9738;BME280;4908;47.446;13.900;2023-07-24T01:11:24;92751.97;;;14.81;100.00
9738;BME280;4908;47.446;13.900;2023-07-24T01:13:58;92750.81;;;14.82;100.00
9738;BME280;4908;47.446;13.900;2023-07-24T01:16:35;92745.81;;;14.81;100.00
9738;BME280;4908;47.446;13.900;2023-07-24T01:19:04;92741.28;;;14.74;100.00
9738;BME280;4908;47.446;13.900;2023-07-24T01:21:45;92745.56;;;14.72;100.00
9738;BME280;4908;47.446;13.900;2023-07-24T01:24:25;92740.41;;;14.54;100.00
9738;BME280;4908;47.446;13.900;2023-07-24T01:26:58;92741.25;;;14.51;100.00
9738;BME280;4908;47.446;13.900;2023-07-24T01:29:25;92736.25;;;14.50;100.00
9738;BME280;4908;47.446;13.900;2023-07-24T01:31:52;92732.38;;;14.51;100.00
9738;BME280;4908;47.446;13.900;2023-07-24T01:34:20;92729.03;;;14.43;100.00
9738;BME280;4908;47.446;13.900;2023-07-24T01:36:47;92729.53;;;14.34;100.00
9738;BME280;4908;47.446;13.900;2023-07-24T01:39:17;92731.91;;;14.29;100.00
9738;BME280;4908;47.446;13.900;2023-07-24T01:41:45;92732.34;;;14.24;100.00
9738;BME280;4908;47.446;13.900;2023-07-24T01:44:14;92731.63;;;14.20;100.00
9738;BME280;4908;47.446;13.900;2023-07-24T01:46:41;92739.59;;;14.27;100.00
9738;BME280;4908;47.446;13.900;2023-07-24T01:49:08;92735.09;;;14.17;100.00
9738;BME280;4908;47.446;13.900;2023-07-24T01:51:36;92737.38;;;14.22;100.00
9738;BME280;4908;47.446;13.900;2023-07-24T01:54:03;92721.50;;;14.31;100.00
9738;BME280;4908;47.446;13.900;2023-07-24T01:56:30;92722.78;;;14.19;100.00
9738;BME280;4908;47.446;13.900;2023-07-24T01:58:57;92726.31;;;14.13;100.00
9738;BME280;4908;47.446;13.900;2023-07-24T02:01:25;92723.59;;;14.13;100.00
9738;BME280;4908;47.446;13.900;2023-07-24T02:03:53;92719.03;;;14.10;100.00
9738;BME280;4908;47.446;13.900;2023-07-24T02:06:20;92725.56;;;14.09;100.00
9738;BME280;4908;47.446;13.900;2023-07-24T02:08:47;92729.56;;;14.01;100.00
9738;BME280;4908;47.446;13.900;2023-07-24T02:11:14;92727.56;;;14.05;100.00
9738;BME280;4908;47.446;13.900;2023-07-24T02:13:43;92722.97;;;14.02;100.00
9738;BME280;4908;47.446;13.900;2023-07-24T02:16:10;92722.16;;;14.05;100.00
9738;BME280;4908;47.446;13.900;2023-07-24T02:18:42;92720.69;;;14.00;100.00
9738;BME280;4908;47.446;13.900;2023-07-24T02:21:09;92722.16;;;14.05;100.00
9738;BME280;4908;47.446;13.900;2023-07-24T02:23:36;92725.22;;;14.07;100.00
9738;BME280;4908;47.446;13.900;2023-07-24T02:26:03;92726.34;;;14.09;100.00
9738;BME280;4908;47.446;13.900;2023-07-24T02:28:31;92719.56;;;13.98;100.00
9738;BME280;4908;47.446;13.900;2023-07-24T02:30:58;92713.09;;;13.92;100.00
9738;BME280;4908;47.446;13.900;2023-07-24T02:33:26;92716.50;;;13.96;100.00
9738;BME280;4908;47.446;13.900;2023-07-24T02:35:54;92714.28;;;13.91;100.00
9738;BME280;4908;47.446;13.900;2023-07-24T02:38:21;92710.56;;;13.78;100.00
9738;BME280;4908;47.446;13.900;2023-07-24T02:40:49;92712.41;;;13.84;100.00
9738;BME280;4908;47.446;13.900;2023-07-24T02:43:16;92716.41;;;13.73;100.00
9738;BME280;4908;47.446;13.900;2023-07-24T02:45:43;92715.22;;;13.74;100.00
9738;BME280;4908;47.446;13.900;2023-07-24T02:48:10;92710.94;;;13.80;100.00
9738;BME280;4908;47.446;13.900;2023-07-24T02:50:37;92704.13;;;13.72;100.00
9738;BME280;4908;47.446;13.900;2023-07-24T02:53:06;92710.19;;;13.76;100.00
9738;BME280;4908;47.446;13.900;2023-07-24T02:55:33;92706.44;;;13.70;100.00
9738;BME280;4908;47.446;13.900;2023-07-24T02:58:00;92705.63;;;13.73;100.00
9738;BME280;4908;47.446;13.900;2023-07-24T03:00:28;92713.25;;;13.78;100.00
9738;BME280;4908;47.446;13.900;2023-07-24T03:02:55;92705.28;;;13.71;100.00
9738;BME280;4908;47.446;13.900;2023-07-24T03:05:22;92709.97;;;13.63;100.00
9738;BME280;4908;47.446;13.900;2023-07-24T03:07:49;92706.88;;;13.65;100.00
9738;BME280;4908;47.446;13.900;2023-07-24T03:10:18;92717.63;;;13.65;100.00
9738;BME280;4908;47.446;13.900;2023-07-24T03:12:45;92706.81;;;13.72;100.00
9738;BME280;4908;47.446;13.900;2023-07-24T03:15:12;92704.81;;;13.76;100.00
9738;BME280;4908;47.446;13.900;2023-07-24T03:17:39;92700.25;;;13.73;100.00
9738;BME280;4908;47.446;13.900;2023-07-24T03:20:15;92703.97;;;13.82;100.00
9738;BME280;4908;47.446;13.900;2023-07-24T03:22:43;92710.19;;;13.76;100.00
9738;BME280;4908;47.446;13.900;2023-07-24T03:25:10;92709.16;;;13.66;100.00
9738;BME280;4908;47.446;13.900;2023-07-24T03:27:39;92707.25;;;13.67;100.00
9738;BME280;4908;47.446;13.900;2023-07-24T03:30:07;92710.38;;;13.62;100.00
9738;BME280;4908;47.446;13.900;2023-07-24T03:32:35;92713.06;;;13.62;100.00
9738;BME280;4908;47.446;13.900;2023-07-24T03:35:03;92711.97;;;13.56;100.00
9738;BME280;4908;47.446;13.900;2023-07-24T03:37:30;92715.75;;;13.62;100.00
9738;BME280;4908;47.446;13.900;2023-07-24T03:39:57;92707.25;;;13.67;100.00
9738;BME280;4908;47.446;13.900;2023-07-24T03:42:26;92709.50;;;13.72;100.00
9738;BME280;4908;47.446;13.900;2023-07-24T03:44:55;92714.44;;;13.77;100.00
9738;BME280;4908;47.446;13.900;2023-07-24T03:47:22;92711.38;;;13.75;100.00
9738;BME280;4908;47.446;13.900;2023-07-24T03:49:50;92707.16;;;13.74;100.00
9738;BME280;4908;47.446;13.900;2023-07-24T03:52:17;92712.56;;;13.70;100.00
9738;BME280;4908;47.446;13.900;2023-07-24T03:54:44;92710.19;;;13.79;100.00
9738;BME280;4908;47.446;13.900;2023-07-24T03:57:12;92704.75;;;13.83;100.00
9738;BME280;4908;47.446;13.900;2023-07-24T03:59:39;92696.38;;;13.77;100.00
9738;BME280;4908;47.446;13.900;2023-07-24T04:02:07;92696.22;;;13.88;100.00
9738;BME280;4908;47.446;13.900;2023-07-24T04:04:35;92690.84;;;13.88;100.00
9738;BME280;4908;47.446;13.900;2023-07-24T04:07:02;92683.91;;;13.90;100.00
9738;BME280;4908;47.446;13.900;2023-07-24T04:09:30;92681.56;;;13.92;100.00
9738;BME280;4908;47.446;13.900;2023-07-24T04:11:57;92674.56;;;13.98;100.00
9738;BME280;4908;47.446;13.900;2023-07-24T04:14:24;92672.28;;;13.97;100.00
9738;BME280;4908;47.446;13.900;2023-07-24T04:16:51;92676.03;;;14.03;100.00
9738;BME280;4908;47.446;13.900;2023-07-24T04:19:20;92686.00;;;14.06;100.00
9738;BME280;4908;47.446;13.900;2023-07-24T04:21:47;92679.91;;;14.02;100.00
9738;BME280;4908;47.446;13.900;2023-07-24T04:24:14;92684.44;;;14.08;100.00
9738;BME280;4908;47.446;13.900;2023-07-24T04:26:42;92679.81;;;14.09;100.00
9738;BME280;4908;47.446;13.900;2023-07-24T04:29:09;92696.06;;;14.02;100.00
9738;BME280;4908;47.446;13.900;2023-07-24T04:31:36;92703.25;;;14.12;100.00
9738;BME280;4908;47.446;13.900;2023-07-24T04:34:02;92695.16;;;14.12;100.00
9738;BME280;4908;47.446;13.900;2023-07-24T04:36:31;92686.63;;;14.17;100.00
9738;BME280;4908;47.446;13.900;2023-07-24T04:38:58;92679.63;;;14.23;100.00
9738;BME280;4908;47.446;13.900;2023-07-24T04:41:25;92689.88;;;14.35;100.00
9738;BME280;4908;47.446;13.900;2023-07-24T04:43:52;92688.16;;;14.48;100.00
9738;BME280;4908;47.446;13.900;2023-07-24T04:46:19;92679.50;;;14.60;100.00
9738;BME280;4908;47.446;13.900;2023-07-24T04:48:46;92675.19;;;14.66;100.00
9738;BME280;4908;47.446;13.900;2023-07-24T04:51:13;92661.16;;;14.52;100.00
9738;BME280;4908;47.446;13.900;2023-07-24T04:53:41;92664.41;;;14.66;100.00
9738;BME280;4908;47.446;13.900;2023-07-24T04:56:08;92672.13;;;14.64;100.00
9738;BME280;4908;47.446;13.900;2023-07-24T04:58:36;92675.78;;;14.77;100.00
9738;BME280;4908;47.446;13.900;2023-07-24T05:01:03;92664.91;;;14.84;100.00
9738;BME280;4908;47.446;13.900;2023-07-24T05:03:30;92668.69;;;14.87;100.00
9738;BME280;4908;47.446;13.900;2023-07-24T05:05:57;92661.50;;;14.80;100.00
9738;BME280;4908;47.446;13.900;2023-07-24T05:08:24;92658.84;;;14.50;100.00
9738;BME280;4908;47.446;13.900;2023-07-24T05:10:56;92660.84;;;14.46;100.00
9738;BME280;4908;47.446;13.900;2023-07-24T05:13:24;92652.53;;;14.37;100.00
9738;BME280;4908;47.446;13.900;2023-07-24T05:15:51;92664.91;;;14.58;100.00
9738;BME280;4908;47.446;13.900;2023-07-24T05:18:18;92659.72;;;14.70;100.00
9738;BME280;4908;47.446;13.900;2023-07-24T05:20:45;92645.97;;;14.61;100.00
9738;BME280;4908;47.446;13.900;2023-07-24T05:23:13;92646.03;;;14.58;100.00
9738;BME280;4908;47.446;13.900;2023-07-24T05:25:40;92646.47;;;14.79;100.00
9738;BME280;4908;47.446;13.900;2023-07-24T05:28:09;92643.00;;;14.79;100.00
9738;BME280;4908;47.446;13.900;2023-07-24T05:30:36;92640.28;;;14.82;100.00
9738;BME280;4908;47.446;13.900;2023-07-24T05:33:03;92634.63;;;14.96;100.00
9738;BME280;4908;47.446;13.900;2023-07-24T05:35:30;92632.03;;;15.12;100.00
9738;BME280;4908;47.446;13.900;2023-07-24T05:37:57;92622.56;;;15.24;100.00
9738;BME280;4908;47.446;13.900;2023-07-24T05:40:24;92617.69;;;15.39;100.00
9738;BME280;4908;47.446;13.900;2023-07-24T05:42:51;92613.94;;;15.33;100.00
9738;BME280;4908;47.446;13.900;2023-07-24T05:45:20;92613.75;;;15.43;100.00
9738;BME280;4908;47.446;13.900;2023-07-24T05:47:47;92615.78;;;15.59;100.00
9738;BME280;4908;47.446;13.900;2023-07-24T05:50:14;92624.16;;;15.45;100.00
9738;BME280;4908;47.446;13.900;2023-07-24T05:52:41;92636.69;;;15.55;100.00
9738;BME280;4908;47.446;13.900;2023-07-24T05:55:08;92636.34;;;15.29;100.00
9738;BME280;4908;47.446;13.900;2023-07-24T05:57:36;92640.84;;;15.16;100.00
9738;BME280;4908;47.446;13.900;2023-07-24T06:00:04;92646.47;;;14.79;100.00
9738;BME280;4908;47.446;13.900;2023-07-24T06:02:32;92651.75;;;14.86;100.00
9738;BME280;4908;47.446;13.900;2023-07-24T06:04:59;92645.53;;;14.89;100.00
9738;BME280;4908;47.446;13.900;2023-07-24T06:07:26;92638.50;;;14.95;100.00
9738;BME280;4908;47.446;13.900;2023-07-24T06:09:53;92625.94;;;15.08;100.00
9738;BME280;4908;47.446;13.900;2023-07-24T06:12:20;92627.19;;;15.23;100.00
9738;BME280;4908;47.446;13.900;2023-07-24T06:14:47;92611.09;;;15.40;100.00
9738;BME280;4908;47.446;13.900;2023-07-24T06:17:14;92625.25;;;15.47;100.00
9738;BME280;4908;47.446;13.900;2023-07-24T06:19:43;92620.38;;;15.19;100.00
9738;BME280;4908;47.446;13.900;2023-07-24T06:22:10;92619.34;;;15.33;100.00
9738;BME280;4908;47.446;13.900;2023-07-24T06:24:37;92624.41;;;15.31;100.00
9738;BME280;4908;47.446;13.900;2023-07-24T06:27:04;92611.34;;;15.49;100.00
9738;BME280;4908;47.446;13.900;2023-07-24T06:29:33;92607.25;;;15.41;100.00
9738;BME280;4908;47.446;13.900;2023-07-24T06:32:00;92600.31;;;15.40;100.00
9738;BME280;4908;47.446;13.900;2023-07-24T06:34:27;92593.75;;;15.41;100.00
9738;BME280;4908;47.446;13.900;2023-07-24T06:36:55;92601.19;;;15.56;100.00
9738;BME280;4908;47.446;13.900;2023-07-24T06:39:22;92594.09;;;15.62;100.00
9738;BME280;4908;47.446;13.900;2023-07-24T06:41:51;92584.22;;;15.91;100.00
9738;BME280;4908;47.446;13.900;2023-07-24T06:44:18;92586.84;;;16.14;100.00
9738;BME280;4908;47.446;13.900;2023-07-24T06:46:45;92583.72;;;16.16;100.00
9738;BME280;4908;47.446;13.900;2023-07-24T06:49:12;92592.28;;;16.11;100.00
9738;BME280;4908;47.446;13.900;2023-07-24T06:51:39;92582.84;;;16.19;100.00
9738;BME280;4908;47.446;13.900;2023-07-24T06:54:08;92566.31;;;16.33;100.00
9738;BME280;4908;47.446;13.900;2023-07-24T06:56:35;92567.16;;;16.46;100.00
9738;BME280;4908;47.446;13.900;2023-07-24T06:59:02;92557.16;;;16.63;100.00
9738;BME280;4908;47.446;13.900;2023-07-24T07:01:29;92554.03;;;16.64;100.00
9738;BME280;4908;47.446;13.900;2023-07-24T07:03:56;92550.97;;;16.78;100.00
9738;BME280;4908;47.446;13.900;2023-07-24T07:06:23;92553.66;;;16.46;100.00
9738;BME280;4908;47.446;13.900;2023-07-24T07:08:50;92558.91;;;16.37;100.00
9738;BME280;4908;47.446;13.900;2023-07-24T07:11:18;92557.22;;;16.43;100.00
9738;BME280;4908;47.446;13.900;2023-07-24T07:13:45;92556.16;;;16.57;100.00
9738;BME280;4908;47.446;13.900;2023-07-24T07:16:12;92552.00;;;16.68;100.00
9738;BME280;4908;47.446;13.900;2023-07-24T07:18:39;92555.53;;;16.81;100.00
9738;BME280;4908;47.446;13.900;2023-07-24T07:21:06;92553.81;;;17.03;100.00
9738;BME280;4908;47.446;13.900;2023-07-24T07:23:33;92543.06;;;17.29;100.00
9738;BME280;4908;47.446;13.900;2023-07-24T07:26:00;92547.16;;;17.49;100.00
9738;BME280;4908;47.446;13.900;2023-07-24T07:28:29;92538.75;;;17.72;100.00
9738;BME280;4908;47.446;13.900;2023-07-24T07:30:56;92539.97;;;17.84;100.00
9738;BME280;4908;47.446;13.900;2023-07-24T07:33:23;92537.81;;;18.04;100.00
9738;BME280;4908;47.446;13.900;2023-07-24T07:35:50;92535.88;;;18.05;100.00
9738;BME280;4908;47.446;13.900;2023-07-24T07:38:17;92536.75;;;18.14;100.00
9738;BME280;4908;47.446;13.900;2023-07-24T07:40:44;92533.50;;;18.44;100.00
9738;BME280;4908;47.446;13.900;2023-07-24T07:43:11;92528.16;;;18.66;100.00
9738;BME280;4908;47.446;13.900;2023-07-24T07:45:40;92532.22;;;18.83;100.00
9738;BME280;4908;47.446;13.900;2023-07-24T07:48:07;92530.34;;;18.93;100.00
9738;BME280;4908;47.446;13.900;2023-07-24T07:50:34;92537.19;;;18.97;100.00
9738;BME280;4908;47.446;13.900;2023-07-24T07:53:00;92527.75;;;19.02;100.00
9738;BME280;4908;47.446;13.900;2023-07-24T07:55:27;92524.78;;;18.74;100.00
9738;BME280;4908;47.446;13.900;2023-07-24T07:57:54;92516.31;;;18.72;100.00
9738;BME280;4908;47.446;13.900;2023-07-24T08:00:22;92514.03;;;18.71;100.00
9738;BME280;4908;47.446;13.900;2023-07-24T08:02:50;92509.19;;;18.53;100.00
9738;BME280;4908;47.446;13.900;2023-07-24T08:05:17;92496.16;;;18.61;100.00
9738;BME280;4908;47.446;13.900;2023-07-24T08:07:44;92481.19;;;18.56;100.00
9738;BME280;4908;47.446;13.900;2023-07-24T08:10:12;92483.75;;;18.72;100.00
9738;BME280;4908;47.446;13.900;2023-07-24T08:12:40;92480.56;;;18.87;100.00
9738;BME280;4908;47.446;13.900;2023-07-24T08:15:09;92482.78;;;19.01;100.00
9738;BME280;4908;47.446;13.900;2023-07-24T08:17:36;92481.97;;;19.13;100.00
9738;BME280;4908;47.446;13.900;2023-07-24T08:20:05;92476.13;;;19.36;100.00
9738;BME280;4908;47.446;13.900;2023-07-24T08:22:32;92475.88;;;19.43;100.00
9738;BME280;4908;47.446;13.900;2023-07-24T08:24:59;92465.09;;;19.61;100.00
9738;BME280;4908;47.446;13.900;2023-07-24T08:27:26;92448.25;;;19.66;100.00
9738;BME280;4908;47.446;13.900;2023-07-24T08:29:54;92448.31;;;19.32;100.00
9738;BME280;4908;47.446;13.900;2023-07-24T08:32:21;92449.84;;;19.54;100.00
9738;BME280;4908;47.446;13.900;2023-07-24T08:34:48;92456.41;;;19.66;100.00
9738;BME280;4908;47.446;13.900;2023-07-24T08:37:16;92444.72;;;19.87;100.00
9738;BME280;4908;47.446;13.900;2023-07-24T08:39:43;92444.16;;;20.01;100.00
9738;BME280;4908;47.446;13.900;2023-07-24T08:42:11;92449.31;;;20.08;100.00
9738;BME280;4908;47.446;13.900;2023-07-24T08:44:38;92462.25;;;19.95;100.00
9738;BME280;4908;47.446;13.900;2023-07-24T08:47:09;92451.94;;;20.21;100.00
9738;BME280;4908;47.446;13.900;2023-07-24T08:49:37;92454.22;;;20.22;100.00
9738;BME280;4908;47.446;13.900;2023-07-24T08:52:06;92441.00;;;20.61;100.00
9738;BME280;4908;47.446;13.900;2023-07-24T08:54:36;92440.41;;;20.93;100.00
9738;BME280;4908;47.446;13.900;2023-07-24T08:57:05;92435.91;;;21.08;100.00
9738;BME280;4908;47.446;13.900;2023-07-24T08:59:32;92425.59;;;20.94;100.00
9738;BME280;4908;47.446;13.900;2023-07-24T09:02:00;92428.00;;;21.28;100.00
9738;BME280;4908;47.446;13.900;2023-07-24T09:04:27;92425.97;;;21.56;100.00
9738;BME280;4908;47.446;13.900;2023-07-24T09:06:56;92425.19;;;21.73;100.00
9738;BME280;4908;47.446;13.900;2023-07-24T09:09:23;92417.00;;;21.82;100.00
9738;BME280;4908;47.446;13.900;2023-07-24T09:11:56;92419.78;;;21.55;100.00
9738;BME280;4908;47.446;13.900;2023-07-24T09:14:26;92415.41;;;21.49;100.00
9738;BME280;4908;47.446;13.900;2023-07-24T09:17:04;92412.41;;;21.47;100.00
9738;BME280;4908;47.446;13.900;2023-07-24T09:19:31;92410.69;;;21.49;100.00
9738;BME280;4908;47.446;13.900;2023-07-24T09:22:08;92409.88;;;21.25;100.00
9738;BME280;4908;47.446;13.900;2023-07-24T09:24:36;92408.56;;;21.53;100.00
9738;BME280;4908;47.446;13.900;2023-07-24T09:27:06;92406.44;;;21.66;100.00
9738;BME280;4908;47.446;13.900;2023-07-24T09:29:34;92402.03;;;22.10;100.00
9738;BME280;4908;47.446;13.900;2023-07-24T09:32:01;92402.63;;;22.38;100.00
9738;BME280;4908;47.446;13.900;2023-07-24T09:34:28;92404.38;;;22.50;100.00
9738;BME280;4908;47.446;13.900;2023-07-24T09:36:55;92397.25;;;22.76;100.00
9738;BME280;4908;47.446;13.900;2023-07-24T09:39:23;92399.25;;;22.90;100.00
9738;BME280;4908;47.446;13.900;2023-07-24T09:41:50;92392.22;;;23.13;100.00
9738;BME280;4908;47.446;13.900;2023-07-24T09:44:19;92397.97;;;23.15;100.00
9738;BME280;4908;47.446;13.900;2023-07-24T09:46:46;92395.72;;;23.13;100.00
9738;BME280;4908;47.446;13.900;2023-07-24T09:49:13;92390.34;;;23.19;100.00
9738;BME280;4908;47.446;13.900;2023-07-24T09:51:45;92388.59;;;23.31;100.00
9738;BME280;4908;47.446;13.900;2023-07-24T09:54:19;92393.09;;;23.19;100.00
9738;BME280;4908;47.446;13.900;2023-07-24T09:56:50;92381.31;;;23.13;100.00
9738;BME280;4908;47.446;13.900;2023-07-24T09:59:20;92377.66;;;23.16;100.00
9738;BME280;4908;47.446;13.900;2023-07-24T10:01:48;92375.94;;;23.04;100.00
9738;BME280;4908;47.446;13.900;2023-07-24T10:04:17;92371.03;;;23.08;100.00
9738;BME280;4908;47.446;13.900;2023-07-24T10:06:46;92358.09;;;22.94;100.00
9738;BME280;4908;47.446;13.900;2023-07-24T10:09:14;92337.69;;;23.04;100.00
9738;BME280;4908;47.446;13.900;2023-07-24T10:11:44;92312.25;;;23.27;100.00
9738;BME280;4908;47.446;13.900;2023-07-24T10:14:11;92288.84;;;23.55;100.00
9738;BME280;4908;47.446;13.900;2023-07-24T10:16:40;92294.38;;;23.75;100.00
9738;BME280;4908;47.446;13.900;2023-07-24T10:19:13;92299.16;;;23.80;100.00
9738;BME280;4908;47.446;13.900;2023-07-24T10:21:44;92294.09;;;23.73;100.00
9738;BME280;4908;47.446;13.900;2023-07-24T10:24:12;92275.59;;;23.83;100.00
9738;BME280;4908;47.446;13.900;2023-07-24T10:26:39;92263.94;;;23.68;100.00
9738;BME280;4908;47.446;13.900;2023-07-24T10:29:06;92268.41;;;23.85;100.00
9738;BME280;4908;47.446;13.900;2023-07-24T10:31:33;92284.34;;;23.52;100.00
9738;BME280;4908;47.446;13.900;2023-07-24T10:34:05;92281.34;;;23.50;100.00
9738;BME280;4908;47.446;13.900;2023-07-24T10:36:34;92289.06;;;23.52;100.00
9738;BME280;4908;47.446;13.900;2023-07-24T10:39:01;92290.03;;;23.20;100.00
9738;BME280;4908;47.446;13.900;2023-07-24T10:41:34;92305.63;;;23.04;100.00
9738;BME280;4908;47.446;13.900;2023-07-24T10:44:02;92304.81;;;23.42;100.00
9738;BME280;4908;47.446;13.900;2023-07-24T10:46:36;92298.84;;;23.58;100.00
9738;BME280;4908;47.446;13.900;2023-07-24T10:49:04;92285.00;;;23.47;100.00
9738;BME280;4908;47.446;13.900;2023-07-24T10:51:32;92296.06;;;23.38;100.00
9738;BME280;4908;47.446;13.900;2023-07-24T10:54:02;92302.81;;;23.57;100.00
9738;BME280;4908;47.446;13.900;2023-07-24T10:56:30;92303.84;;;23.94;100.00
9738;BME280;4908;47.446;13.900;2023-07-24T10:59:02;92311.91;;;24.18;100.00
9738;BME280;4908;47.446;13.900;2023-07-24T11:01:30;92311.34;;;24.14;100.00
9738;BME280;4908;47.446;13.900;2023-07-24T11:03:58;92311.28;;;24.49;100.00
9738;BME280;4908;47.446;13.900;2023-07-24T11:06:26;92308.97;;;24.82;100.00
9738;BME280;4908;47.446;13.900;2023-07-24T11:08:55;92302.88;;;24.52;100.00
9738;BME280;4908;47.446;13.900;2023-07-24T11:11:27;92308.84;;;24.51;100.00
9738;BME280;4908;47.446;13.900;2023-07-24T11:13:54;92305.66;;;24.98;100.00
9738;BME280;4908;47.446;13.900;2023-07-24T11:16:22;92300.91;;;25.24;100.00
9738;BME280;4908;47.446;13.900;2023-07-24T11:18:50;92293.53;;;25.36;100.00
9738;BME280;4908;47.446;13.900;2023-07-24T11:21:18;92275.38;;;25.13;100.00
9738;BME280;4908;47.446;13.900;2023-07-24T11:23:48;92253.19;;;25.11;100.00
9738;BME280;4908;47.446;13.900;2023-07-24T11:26:15;92248.91;;;25.04;100.00
9738;BME280;4908;47.446;13.900;2023-07-24T11:28:44;92247.38;;;25.03;100.00
9738;BME280;4908;47.446;13.900;2023-07-24T11:31:11;92246.66;;;25.03;100.00
9738;BME280;4908;47.446;13.900;2023-07-24T11:33:40;92233.34;;;24.90;100.00
9738;BME280;4908;47.446;13.900;2023-07-24T11:36:09;92221.25;;;25.33;100.00
9738;BME280;4908;47.446;13.900;2023-07-24T11:38:37;92213.84;;;25.39;100.00
9738;BME280;4908;47.446;13.900;2023-07-24T11:41:08;92218.63;;;25.50;100.00
9738;BME280;4908;47.446;13.900;2023-07-24T11:43:35;92221.13;;;25.53;100.00
9738;BME280;4908;47.446;13.900;2023-07-24T11:46:03;92211.56;;;25.74;100.00
9738;BME280;4908;47.446;13.900;2023-07-24T11:48:30;92197.28;;;26.13;100.00
9738;BME280;4908;47.446;13.900;2023-07-24T11:50:58;92197.09;;;26.33;100.00
9738;BME280;4908;47.446;13.900;2023-07-24T11:53:26;92193.63;;;26.38;100.00
9738;BME280;4908;47.446;13.900;2023-07-24T11:55:54;92198.28;;;26.10;100.00
9738;BME280;4908;47.446;13.900;2023-07-24T11:58:25;92189.63;;;25.74;100.00
9738;BME280;4908;47.446;13.900;2023-07-24T12:00:53;92184.53;;;26.10;100.00
9738;BME280;4908;47.446;13.900;2023-07-24T12:03:21;92182.13;;;26.34;100.00
9738;BME280;4908;47.446;13.900;2023-07-24T12:05:48;92176.69;;;26.50;100.00
9738;BME280;4908;47.446;13.900;2023-07-24T12:08:16;92168.94;;;26.54;100.00
9738;BME280;4908;47.446;13.900;2023-07-24T12:10:44;92169.78;;;26.77;100.00
9738;BME280;4908;47.446;13.900;2023-07-24T12:13:12;92185.00;;;26.89;100.00
9738;BME280;4908;47.446;13.900;2023-07-24T12:15:40;92179.53;;;27.11;100.00
9738;BME280;4908;47.446;13.900;2023-07-24T12:18:07;92175.28;;;27.38;100.00
9738;BME280;4908;47.446;13.900;2023-07-24T12:20:34;92171.50;;;27.58;100.00
9738;BME280;4908;47.446;13.900;2023-07-24T12:23:02;92163.53;;;27.48;100.00
9738;BME280;4908;47.446;13.900;2023-07-24T12:25:30;92175.97;;;27.72;100.00
9738;BME280;4908;47.446;13.900;2023-07-24T12:27:57;92174.41;;;28.04;100.00
9738;BME280;4908;47.446;13.900;2023-07-24T12:30:24;92186.38;;;28.23;100.00
9738;BME280;4908;47.446;13.900;2023-07-24T12:32:52;92191.16;;;28.17;100.00
9738;BME280;4908;47.446;13.900;2023-07-24T12:35:20;92186.31;;;28.34;100.00
9738;BME280;4908;47.446;13.900;2023-07-24T12:37:47;92171.22;;;28.46;100.00
9738;BME280;4908;47.446;13.900;2023-07-24T12:40:14;92160.03;;;28.79;100.00
9738;BME280;4908;47.446;13.900;2023-07-24T12:42:41;92154.34;;;29.01;100.00
9738;BME280;4908;47.446;13.900;2023-07-24T12:45:08;92153.03;;;29.08;100.00
9738;BME280;4908;47.446;13.900;2023-07-24T12:47:35;92144.94;;;29.21;100.00
9738;BME280;4908;47.446;13.900;2023-07-24T12:50:04;92148.28;;;29.38;100.00
9738;BME280;4908;47.446;13.900;2023-07-24T12:52:32;92143.63;;;29.28;100.00
9738;BME280;4908;47.446;13.900;2023-07-24T12:54:59;92142.75;;;29.38;100.00
9738;BME280;4908;47.446;13.900;2023-07-24T12:57:26;92134.41;;;29.19;100.00
9738;BME280;4908;47.446;13.900;2023-07-24T12:59:53;92133.34;;;29.28;100.00
9738;BME280;4908;47.446;13.900;2023-07-24T13:02:20;92131.63;;;29.49;100.00